createdAt,value
2019-05-11T00:01:07.914Z,4.40
2019-05-11T00:06:07.655Z,4.43
2019-05-11T00:11:07.315Z,4.73
2019-05-11T00:16:06.975Z,4.40
2019-05-11T00:21:06.944Z,5.17
2019-05-11T00:26:06.635Z,4.80
2019-05-11T00:31:06.371Z,6.67
2019-05-11T00:36:06.083Z,6.00
2019-05-11T00:41:06.000Z,5.13
2019-05-11T00:46:05.988Z,5.57
2019-05-11T00:51:05.644Z,4.97
2019-05-11T00:56:05.518Z,5.10
2019-05-11T01:01:05.252Z,5.60
2019-05-11T01:06:04.904Z,6.10
2019-05-11T01:11:04.988Z,4.97
2019-05-11T01:16:04.779Z,5.57
2019-05-11T01:21:04.435Z,5.30
2019-05-11T01:26:04.131Z,4.57
2019-05-11T01:31:04.924Z,4.90
2019-05-11T01:36:04.572Z,4.60
2019-05-11T01:41:04.398Z,4.40
2019-05-11T01:46:04.141Z,4.07
2019-05-11T01:51:03.795Z,3.90
2019-05-11T01:56:03.579Z,4.10
2019-05-11T02:01:03.203Z,4.40
2019-05-11T02:06:02.868Z,3.80
2019-05-11T02:11:15.341Z,4.40
2019-05-11T02:16:04.024Z,3.87
2019-05-11T02:21:03.663Z,3.73
2019-05-11T02:26:03.671Z,4.00
2019-05-11T02:31:03.724Z,3.50
2019-05-11T02:36:03.410Z,3.80
2019-05-11T02:41:03.167Z,4.43
2019-05-11T02:46:03.808Z,4.00
2019-05-11T02:51:03.605Z,4.83
2019-05-11T02:56:04.406Z,4.43
2019-05-11T03:01:04.179Z,4.30
2019-05-11T03:06:03.895Z,5.20
2019-05-11T03:11:04.508Z,5.53
2019-05-11T03:16:04.144Z,5.50
2019-05-11T03:21:03.995Z,5.93
2019-05-11T03:26:03.771Z,5.30
2019-05-11T03:31:03.705Z,5.60
2019-05-11T03:36:03.371Z,5.73
2019-05-11T03:41:03.365Z,6.40
2019-05-11T03:46:03.027Z,5.23
2019-05-11T03:51:02.705Z,7.70
2019-05-11T03:56:02.375Z,6.33
2019-05-11T04:01:02.026Z,7.10
2019-05-11T04:06:01.701Z,7.50
2019-05-11T04:11:01.440Z,7.20
2019-05-11T04:16:01.167Z,6.40
2019-05-11T04:21:00.807Z,5.90
2019-05-11T04:26:00.936Z,7.20
2019-05-11T04:31:00.653Z,6.40
2019-05-11T04:36:00.600Z,6.93
2019-05-11T04:41:00.499Z,6.93
2019-05-11T04:46:00.143Z,7.83
2019-05-11T04:50:59.808Z,7.07
2019-05-11T04:55:59.456Z,6.17
2019-05-11T05:00:59.431Z,6.80
2019-05-11T05:06:20.846Z,6.87
2019-05-11T05:11:00.758Z,6.40
2019-05-11T05:16:01.092Z,5.37
2019-05-11T05:21:01.814Z,7.23
2019-05-11T05:26:01.472Z,5.97
2019-05-11T05:31:01.112Z,6.57
2019-05-11T05:36:00.784Z,6.50
2019-05-11T05:41:00.448Z,4.67
2019-05-11T05:46:00.098Z,5.83
2019-05-11T05:50:59.804Z,5.30
2019-05-11T05:55:59.535Z,5.17
2019-05-11T06:00:59.179Z,5.70
2019-05-11T06:05:58.816Z,7.13
2019-05-11T06:10:58.461Z,5.20
2019-05-11T06:15:58.190Z,5.77
2019-05-11T06:20:58.072Z,4.40
2019-05-11T06:25:57.764Z,5.50
2019-05-11T06:30:57.425Z,4.50
2019-05-11T06:35:57.055Z,3.97
2019-05-11T06:40:56.818Z,5.10
2019-05-11T06:45:56.427Z,4.30
2019-05-11T06:50:56.402Z,4.10
2019-05-11T06:55:56.054Z,4.63
2019-05-11T07:00:55.684Z,3.90
2019-05-11T07:05:55.307Z,4.90
2019-05-11T07:10:54.978Z,4.10
2019-05-11T07:15:54.647Z,4.20
2019-05-11T07:20:54.315Z,3.60
2019-05-11T07:25:53.967Z,3.30
2019-05-11T07:30:53.635Z,3.73
2019-05-11T07:35:53.628Z,3.00
2019-05-11T07:40:53.313Z,4.00
2019-05-11T07:45:53.011Z,2.90
2019-05-11T07:50:52.679Z,2.73
2019-05-11T07:55:52.953Z,3.40
2019-05-11T08:00:52.703Z,3.10
2019-05-11T08:05:52.338Z,2.60
2019-05-11T08:10:52.332Z,1.97
2019-05-11T08:15:51.975Z,2.87
2019-05-11T08:20:51.655Z,2.73
2019-05-11T08:25:54.237Z,4.13
2019-05-11T08:30:52.692Z,2.93
2019-05-11T08:35:52.728Z,2.43
2019-05-11T08:40:52.386Z,2.40
2019-05-11T08:45:52.324Z,2.17
2019-05-11T08:50:51.943Z,2.70
2019-05-11T08:55:52.548Z,2.90
2019-05-11T09:00:52.428Z,2.37
2019-05-11T09:05:52.060Z,2.13
2019-05-11T09:10:51.702Z,2.43
2019-05-11T09:15:51.357Z,2.50
2019-05-11T09:20:50.995Z,2.50
2019-05-11T09:25:50.659Z,2.13
2019-05-11T09:30:50.381Z,2.13
2019-05-11T09:35:53.279Z,2.30
2019-05-11T09:40:51.715Z,2.30
2019-05-11T09:45:52.432Z,3.10
2019-05-11T09:50:52.091Z,2.27
2019-05-11T09:55:51.802Z,2.37
2019-05-11T10:00:51.464Z,2.67
2019-05-11T10:05:51.119Z,2.40
2019-05-11T10:10:50.918Z,2.10
2019-05-11T10:16:03.690Z,2.57
2019-05-11T10:20:52.223Z,2.30
2019-05-11T10:25:51.875Z,2.37
2019-05-11T10:30:52.092Z,2.53
2019-05-11T10:35:51.859Z,2.53
2019-05-11T10:40:51.531Z,2.30
2019-05-11T10:45:51.179Z,2.60
2019-05-11T10:50:51.102Z,2.37
2019-05-11T10:55:50.760Z,2.40
2019-05-11T11:00:52.024Z,2.63
2019-05-11T11:05:51.699Z,2.33
2019-05-11T11:10:51.636Z,2.70
2019-05-11T11:15:51.368Z,2.43
2019-05-11T11:20:51.004Z,2.73
2019-05-11T11:25:50.935Z,3.00
2019-05-11T11:30:50.584Z,2.90
2019-05-11T11:35:50.220Z,2.13
2019-05-11T11:40:49.872Z,2.10
2019-05-11T11:45:49.599Z,2.50
2019-05-11T11:50:49.519Z,2.53
2019-05-11T11:55:49.167Z,2.20
2019-05-11T12:00:48.827Z,2.50
2019-05-11T12:05:48.469Z,1.97
2019-05-11T12:10:48.623Z,2.70
2019-05-11T12:15:48.435Z,2.50
2019-05-11T12:20:48.237Z,2.87
2019-05-11T12:25:48.848Z,2.33
2019-05-11T12:30:48.659Z,2.33
2019-05-11T12:35:48.331Z,2.33
2019-05-11T12:40:48.035Z,2.30
2019-05-11T12:45:48.211Z,2.10
2019-05-11T12:50:48.561Z,2.93
2019-05-11T12:55:48.597Z,2.30
2019-05-11T13:00:48.367Z,2.03
2019-05-11T13:05:48.546Z,2.63
2019-05-11T13:10:49.310Z,2.17
2019-05-11T13:15:48.959Z,2.70
2019-05-11T13:20:48.603Z,1.90
2019-05-11T13:25:48.271Z,1.87
2019-05-11T13:30:48.799Z,2.50
2019-05-11T13:35:48.955Z,2.20
2019-05-11T13:40:48.957Z,2.10
2019-05-11T13:45:48.759Z,2.50
2019-05-11T13:50:48.479Z,2.27
2019-05-11T13:55:48.310Z,2.70
2019-05-11T14:00:48.217Z,2.83
2019-05-11T14:05:48.439Z,2.50
2019-05-11T14:10:48.839Z,2.40
2019-05-11T14:15:48.722Z,2.33
2019-05-11T14:20:48.534Z,2.53
2019-05-11T14:25:48.830Z,1.73
2019-05-11T14:30:48.813Z,2.23
2019-05-11T14:35:48.888Z,2.00
2019-05-11T14:40:48.740Z,1.90
2019-05-11T14:45:49.763Z,2.50
2019-05-11T14:50:49.412Z,2.70
2019-05-11T14:55:49.075Z,1.60
2019-05-11T15:00:49.068Z,1.80
2019-05-11T15:05:48.799Z,2.13
2019-05-11T15:10:48.959Z,2.60
2019-05-11T15:15:48.967Z,2.00
2019-05-11T15:20:48.658Z,1.90
2019-05-11T15:25:48.859Z,1.60
2019-05-11T15:30:48.623Z,1.87
2019-05-11T15:35:48.266Z,1.70
2019-05-11T15:40:48.782Z,2.17
2019-05-11T15:45:48.833Z,1.63
2019-05-11T15:50:48.895Z,1.80
2019-05-11T15:55:48.555Z,1.70
2019-05-11T16:00:48.474Z,1.80
2019-05-11T16:05:48.466Z,1.70
2019-05-11T16:10:48.922Z,1.40
2019-05-11T16:15:48.742Z,1.20
2019-05-11T16:20:50.274Z,1.47
2019-05-11T16:25:50.031Z,1.50
2019-05-11T16:30:49.683Z,1.20
2019-05-11T16:35:49.334Z,1.23
2019-05-11T16:40:48.994Z,1.67
2019-05-11T16:45:51.049Z,1.00
2019-05-11T16:50:50.336Z,1.50
2019-05-11T16:55:49.982Z,1.53
2019-05-11T17:00:49.743Z,1.13
2019-05-11T17:05:49.398Z,1.40
2019-05-11T17:10:59.444Z,1.30
2019-05-11T17:15:59.624Z,1.40
2019-05-11T17:20:59.239Z,1.30
2019-05-11T17:25:58.968Z,1.50
2019-05-11T17:31:02.484Z,1.60
2019-05-11T17:36:00.287Z,1.37
2019-05-11T17:41:00.039Z,1.50
2019-05-11T17:45:59.690Z,1.60
2019-05-11T17:50:59.320Z,1.30
2019-05-11T17:55:58.985Z,1.37
2019-05-11T18:00:59.102Z,1.33
2019-05-11T18:05:59.114Z,1.70
2019-05-11T18:10:58.890Z,1.40
2019-05-11T18:15:58.526Z,1.80
2019-05-11T18:20:58.219Z,1.37
2019-05-11T18:25:58.010Z,1.40
2019-05-11T18:30:58.350Z,1.60
2019-05-11T18:35:58.653Z,1.40
2019-05-11T18:40:58.448Z,1.67
2019-05-11T18:45:58.464Z,1.30
2019-05-11T18:50:58.951Z,1.70
2019-05-11T18:55:59.248Z,1.57
2019-05-11T19:00:58.991Z,1.50
2019-05-11T19:05:58.636Z,2.40
2019-05-11T19:10:58.343Z,1.80
2019-05-11T19:15:58.382Z,1.60
2019-05-11T19:20:58.820Z,2.13
2019-05-11T19:25:58.644Z,2.20
2019-05-11T19:30:59.133Z,1.90
2019-05-11T19:35:59.091Z,2.80
2019-05-11T19:40:59.002Z,5.17
2019-05-11T19:45:58.679Z,13.50
2019-05-11T19:51:06.948Z,5.17
2019-05-11T19:56:00.738Z,3.80
2019-05-11T20:01:00.446Z,3.30
2019-05-11T20:06:00.225Z,2.83
2019-05-11T20:11:00.048Z,4.27
2019-05-11T20:15:59.682Z,5.17
2019-05-11T20:20:59.372Z,8.30
2019-05-11T20:25:59.007Z,2.97
2019-05-11T20:30:58.874Z,3.20
2019-05-11T20:35:58.672Z,3.90
2019-05-11T20:40:58.346Z,5.07
2019-05-11T20:45:58.011Z,6.97
2019-05-11T20:50:57.850Z,6.37
2019-05-11T20:55:58.248Z,4.90
2019-05-11T21:00:58.114Z,5.03
2019-05-11T21:05:58.623Z,4.60
2019-05-11T21:10:58.411Z,4.60
2019-05-11T21:15:59.263Z,3.50
2019-05-11T21:20:59.072Z,4.00
2019-05-11T21:25:58.711Z,3.70
2019-05-11T21:30:58.580Z,2.90
2019-05-11T21:36:00.753Z,2.90
2019-05-11T21:40:59.719Z,5.00
2019-05-11T21:46:01.297Z,3.60
2019-05-11T21:51:02.103Z,3.77
2019-05-11T21:56:01.746Z,4.53
2019-05-11T22:01:01.670Z,3.40
2019-05-11T22:06:01.691Z,3.03
2019-05-11T22:11:02.403Z,3.37
2019-05-11T22:16:02.047Z,3.00
2019-05-11T22:21:02.357Z,3.00
2019-05-11T22:26:01.984Z,2.40
2019-05-11T22:31:01.719Z,2.73
2019-05-11T22:36:01.373Z,2.27
2019-05-11T22:41:01.035Z,3.93
2019-05-11T22:46:00.670Z,3.20
2019-05-11T22:51:00.306Z,2.70
2019-05-11T22:55:59.967Z,1.87
2019-05-11T23:01:00.483Z,2.50
2019-05-11T23:06:00.119Z,2.57
2019-05-11T23:11:00.147Z,3.00
2019-05-11T23:15:59.787Z,2.37
2019-05-11T23:20:59.419Z,2.63
2019-05-11T23:25:59.061Z,2.93
2019-05-11T23:30:58.695Z,2.23
2019-05-11T23:35:58.857Z,2.63
2019-05-11T23:40:58.936Z,2.40
2019-05-11T23:45:59.075Z,2.00
2019-05-11T23:50:58.723Z,2.60
2019-05-11T23:55:58.719Z,2.50
